createdAt,value
2019-03-05T00:00:39.927Z,7.21
2019-03-05T00:05:33.915Z,7.21
2019-03-05T00:10:27.756Z,7.20
2019-03-05T00:15:28.799Z,7.19
2019-03-05T00:20:22.766Z,7.24
2019-03-05T00:25:22.739Z,7.19
2019-03-05T00:30:31.934Z,7.13
2019-03-05T00:35:32.651Z,7.16
2019-03-05T00:40:33.259Z,7.21
2019-03-05T00:45:42.546Z,7.27
2019-03-05T00:50:40.231Z,7.26
2019-03-05T00:56:04.768Z,7.31
2019-03-05T01:01:08.445Z,7.29
2019-03-05T01:06:22.809Z,7.31
2019-03-05T01:11:17.574Z,7.33
2019-03-05T01:16:13.530Z,7.28
2019-03-05T01:21:07.698Z,7.13
2019-03-05T01:26:01.854Z,7.07
2019-03-05T01:31:14.542Z,7.00
2019-03-05T01:36:10.452Z,6.95
2019-03-05T01:41:06.223Z,6.89
2019-03-05T01:46:00.245Z,6.68
2019-03-05T01:50:54.150Z,6.47
2019-03-05T01:55:47.983Z,6.32
2019-03-05T02:00:41.932Z,6.13
2019-03-05T02:05:35.806Z,6.06
2019-03-05T02:10:32.442Z,5.93
2019-03-05T02:15:26.284Z,5.92
2019-03-05T02:20:22.433Z,5.87
2019-03-05T02:25:31.594Z,5.80
2019-03-05T02:30:50.685Z,5.71
2019-03-05T02:36:06.498Z,5.62
2019-03-05T02:41:34.511Z,5.55
2019-03-05T02:46:32.180Z,5.59
2019-03-05T02:51:29.881Z,5.76
2019-03-05T02:56:33.520Z,5.91
2019-03-05T03:01:35.066Z,6.01
2019-03-05T03:06:29.436Z,6.10
2019-03-05T03:11:23.268Z,6.13
2019-03-05T03:16:17.142Z,6.24
2019-03-05T03:21:12.897Z,6.32
2019-03-05T03:26:06.764Z,6.32
2019-03-05T03:31:00.662Z,6.38
2019-03-05T03:35:54.512Z,6.35
2019-03-05T03:40:48.369Z,6.31
2019-03-05T03:45:42.236Z,6.37
2019-03-05T03:50:36.110Z,6.42
2019-03-05T03:55:30.060Z,6.42
2019-03-05T04:00:24.251Z,6.39
2019-03-05T04:05:18.071Z,6.00
2019-03-05T04:10:14.220Z,5.60
2019-03-05T04:15:15.824Z,5.53
2019-03-05T04:20:12.370Z,5.51
2019-03-05T04:25:07.913Z,5.46
2019-03-05T04:30:03.456Z,5.52
2019-03-05T04:34:57.323Z,5.53
2019-03-05T04:39:51.272Z,5.51
2019-03-05T04:44:47.037Z,5.52
2019-03-05T04:49:45.869Z,5.61
2019-03-05T04:54:39.826Z,5.67
2019-03-05T04:59:33.774Z,5.73
2019-03-05T05:04:27.588Z,5.88
2019-03-05T05:09:21.432Z,5.98
2019-03-05T05:14:15.435Z,6.05
2019-03-05T05:19:09.248Z,6.10
2019-03-05T05:24:03.199Z,6.18
2019-03-05T05:28:57.048Z,6.20
2019-03-05T05:33:51.020Z,6.16
2019-03-05T05:38:44.854Z,6.16
2019-03-05T05:43:38.715Z,6.06
2019-03-05T05:48:32.768Z,5.80
2019-03-05T05:53:26.655Z,5.80
2019-03-05T05:58:20.505Z,5.76
2019-03-05T06:03:14.448Z,5.71
2019-03-05T06:08:08.298Z,5.72
2019-03-05T06:13:02.285Z,5.69
2019-03-05T06:17:56.142Z,5.68
2019-03-05T06:22:50.099Z,5.70
2019-03-05T06:27:43.937Z,5.68
2019-03-05T06:32:37.878Z,5.55
2019-03-05T06:37:33.049Z,4.90
2019-03-05T06:42:27.089Z,4.73
2019-03-05T06:47:20.938Z,4.59
2019-03-05T06:52:14.850Z,4.37
2019-03-05T06:57:08.792Z,4.33
2019-03-05T07:02:02.870Z,4.42
2019-03-05T07:06:56.735Z,4.43
2019-03-05T07:12:03.773Z,4.37
2019-03-05T07:17:13.784Z,4.29
2019-03-05T07:22:23.794Z,4.10
2019-03-05T07:27:23.583Z,4.04
2019-03-05T07:32:17.566Z,4.16
2019-03-05T07:37:11.714Z,4.12
2019-03-05T07:42:05.678Z,4.15
2019-03-05T07:46:59.650Z,4.24
2019-03-05T07:51:53.530Z,4.30
2019-03-05T07:56:47.491Z,4.29
2019-03-05T08:01:41.551Z,4.26
2019-03-05T08:06:35.534Z,4.31
2019-03-05T08:11:31.753Z,4.47
2019-03-05T08:16:26.191Z,4.54
2019-03-05T08:21:20.168Z,4.63
2019-03-05T08:26:14.356Z,4.74
2019-03-05T08:31:08.302Z,4.64
2019-03-05T08:36:02.674Z,4.61
2019-03-05T08:40:56.588Z,4.80
2019-03-05T08:45:50.475Z,4.78
2019-03-05T08:50:44.853Z,4.92
2019-03-05T08:55:38.872Z,5.02
2019-03-05T09:00:32.825Z,5.08
2019-03-05T09:05:26.930Z,5.44
2019-03-05T09:10:23.198Z,5.72
2019-03-05T09:15:18.254Z,5.82
2019-03-05T09:20:14.650Z,5.87
2019-03-05T09:25:11.548Z,5.91
2019-03-05T09:30:14.655Z,5.80
2019-03-05T09:35:11.481Z,5.82
2019-03-05T09:40:11.384Z,6.25
2019-03-05T09:45:08.782Z,6.18
2019-03-05T09:50:05.766Z,6.16
2019-03-05T09:54:59.635Z,6.48
2019-03-05T09:59:53.721Z,6.81
2019-03-05T10:04:47.710Z,7.23
2019-03-05T10:09:41.563Z,7.33
2019-03-05T10:14:35.441Z,7.73
2019-03-05T10:19:29.310Z,7.81
2019-03-05T10:24:23.321Z,8.35
2019-03-05T10:29:17.209Z,8.73
2019-03-05T10:34:11.269Z,9.60
2019-03-05T10:39:11.942Z,10.61
2019-03-05T10:44:05.936Z,10.69
2019-03-05T10:48:59.905Z,12.30
2019-03-05T10:53:53.908Z,10.89
2019-03-05T10:58:47.933Z,9.25
2019-03-05T11:03:42.132Z,8.74
2019-03-05T11:08:36.086Z,8.57
2019-03-05T11:13:30.048Z,8.45
2019-03-05T11:18:29.531Z,8.38
2019-03-05T11:23:20.097Z,9.69
2019-03-05T11:28:13.953Z,11.87
2019-03-05T11:33:07.931Z,10.24
2019-03-05T11:38:02.139Z,9.32
2019-03-05T11:42:56.065Z,9.34
2019-03-05T11:47:50.477Z,9.20
2019-03-05T11:52:44.736Z,9.97
2019-03-05T11:57:38.696Z,10.19
2019-03-05T12:02:32.557Z,12.01
2019-03-05T12:07:26.559Z,11.75
2019-03-05T12:12:20.528Z,11.29
2019-03-05T12:17:14.480Z,10.31
2019-03-05T12:22:08.325Z,10.25
2019-03-05T12:27:02.318Z,9.14
2019-03-05T12:31:56.272Z,8.93
2019-03-05T12:36:50.304Z,8.63
2019-03-05T12:41:44.391Z,8.28
2019-03-05T12:46:38.293Z,8.19
2019-03-05T12:51:32.315Z,8.51
2019-03-05T12:56:26.617Z,7.90
2019-03-05T13:01:20.617Z,8.30
2019-03-05T13:06:14.735Z,9.54
2019-03-05T13:11:09.334Z,9.67
2019-03-05T13:16:04.618Z,9.99
2019-03-05T13:20:58.539Z,15.49
2019-03-05T13:25:52.512Z,21.66
2019-03-05T13:30:46.386Z,22.44
2019-03-05T13:35:40.363Z,25.70
2019-03-05T13:40:38.388Z,25.19
2019-03-05T13:45:30.480Z,22.34
2019-03-05T13:50:57.303Z,24.22
2019-03-05T13:56:28.454Z,26.64
2019-03-05T14:01:22.469Z,25.52
2019-03-05T14:06:43.037Z,21.82
2019-03-05T14:11:36.999Z,16.81
2019-03-05T14:16:31.122Z,15.26
2019-03-05T14:21:24.993Z,14.44
2019-03-05T14:26:18.932Z,13.29
2019-03-05T14:31:13.034Z,13.07
2019-03-05T14:36:07.025Z,19.11
2019-03-05T14:41:01.187Z,18.46
2019-03-05T14:45:55.182Z,14.14
2019-03-05T14:50:49.065Z,12.91
2019-03-05T14:55:43.079Z,12.88
2019-03-05T15:00:37.403Z,15.10
2019-03-05T15:05:31.485Z,21.04
2019-03-05T15:10:25.326Z,21.21
2019-03-05T15:15:29.995Z,20.23
2019-03-05T15:20:23.936Z,18.45
2019-03-05T15:25:17.921Z,27.35
2019-03-05T15:30:17.904Z,29.97
2019-03-05T15:35:12.335Z,28.64
2019-03-05T15:40:09.172Z,25.92
2019-03-05T15:45:06.121Z,25.64
2019-03-05T15:49:59.923Z,24.05
2019-03-05T15:54:53.883Z,25.54
2019-03-05T15:59:47.770Z,25.07
2019-03-05T16:04:43.736Z,25.66
2019-03-05T16:09:39.136Z,24.62
2019-03-05T16:14:33.885Z,21.05
2019-03-05T16:19:27.939Z,16.43
2019-03-05T16:24:21.789Z,14.41
2019-03-05T16:29:16.248Z,13.50
2019-03-05T16:34:22.909Z,12.66
2019-03-05T16:39:21.444Z,11.83
2019-03-05T16:44:29.294Z,11.30
2019-03-05T16:49:41.886Z,10.93
2019-03-05T16:54:54.460Z,10.59
2019-03-05T16:59:53.370Z,10.35
2019-03-05T17:04:49.294Z,10.00
2019-03-05T17:09:45.393Z,9.73
2019-03-05T17:14:39.403Z,9.58
2019-03-05T17:19:33.382Z,9.42
2019-03-05T17:24:27.731Z,9.27
2019-03-05T17:29:21.615Z,9.09
2019-03-05T17:34:15.692Z,8.92
2019-03-05T17:39:12.030Z,8.78
2019-03-05T17:44:05.906Z,8.65
2019-03-05T17:48:59.775Z,8.58
2019-03-05T17:53:53.685Z,8.45
2019-03-05T17:58:47.737Z,8.30
2019-03-05T18:03:41.615Z,8.27
2019-03-05T18:08:35.497Z,8.21
2019-03-05T18:13:29.466Z,8.18
2019-03-05T18:18:23.297Z,8.14
2019-03-05T18:23:17.258Z,8.02
2019-03-05T18:28:11.170Z,7.91
2019-03-05T18:33:05.542Z,7.81
2019-03-05T18:37:59.506Z,7.74
2019-03-05T18:42:53.471Z,7.66
2019-03-05T18:47:47.755Z,7.52
2019-03-05T18:52:41.796Z,7.40
2019-03-05T18:57:35.778Z,7.26
2019-03-05T19:02:29.749Z,7.21
2019-03-05T19:07:23.648Z,7.19
2019-03-05T19:12:17.638Z,7.15
2019-03-05T19:17:11.653Z,7.13
2019-03-05T19:22:05.660Z,7.13
2019-03-05T19:26:59.537Z,7.04
2019-03-05T19:31:53.444Z,7.00
2019-03-05T19:36:47.334Z,6.92
2019-03-05T19:41:41.503Z,6.82
2019-03-05T19:46:35.414Z,6.78
2019-03-05T19:51:29.636Z,6.72
2019-03-05T19:56:23.623Z,6.68
2019-03-05T20:01:19.503Z,6.63
2019-03-05T20:06:13.512Z,6.53
2019-03-05T20:11:07.942Z,6.44
2019-03-05T20:16:02.647Z,6.42
2019-03-05T20:20:56.534Z,6.33
2019-03-05T20:25:51.002Z,6.27
2019-03-05T20:30:45.286Z,6.21
2019-03-05T20:35:39.294Z,6.11
2019-03-05T20:40:33.402Z,6.09
2019-03-05T20:45:30.503Z,6.11
2019-03-05T20:50:24.648Z,6.09
2019-03-05T20:55:22.897Z,6.10
2019-03-05T21:00:22.592Z,6.05
2019-03-05T21:05:16.610Z,6.02
2019-03-05T21:10:10.735Z,5.95
2019-03-05T21:15:08.440Z,5.83
2019-03-05T21:20:06.293Z,5.79
2019-03-05T21:25:00.288Z,5.73
2019-03-05T21:29:54.254Z,5.73
2019-03-05T21:34:48.236Z,5.69
2019-03-05T21:39:42.277Z,5.69
2019-03-05T21:44:36.162Z,5.65
2019-03-05T21:49:30.092Z,5.63
2019-03-05T21:54:23.986Z,5.63
2019-03-05T21:59:17.864Z,5.67
2019-03-05T22:04:11.806Z,5.62
2019-03-05T22:09:05.814Z,5.67
2019-03-05T22:13:59.767Z,5.70
2019-03-05T22:18:53.623Z,5.72
2019-03-05T22:23:47.518Z,5.73
2019-03-05T22:28:41.388Z,5.78
2019-03-05T22:33:35.350Z,5.83
2019-03-05T22:38:29.274Z,5.92
2019-03-05T22:43:23.315Z,6.03
2019-03-05T22:48:17.306Z,6.05
2019-03-05T22:53:11.223Z,6.11
2019-03-05T22:58:05.493Z,6.19
2019-03-05T23:02:59.859Z,6.28
2019-03-05T23:07:53.722Z,6.33
2019-03-05T23:12:48.110Z,6.40
2019-03-05T23:17:42.381Z,6.46
2019-03-05T23:22:36.379Z,6.50
2019-03-05T23:27:30.328Z,6.58
2019-03-05T23:32:24.196Z,6.63
2019-03-05T23:37:18.132Z,6.66
2019-03-05T23:42:12.109Z,6.68
2019-03-05T23:47:06.480Z,6.74
2019-03-05T23:52:00.405Z,6.74
2019-03-05T23:56:54.369Z,6.82
